createdAt,value
2023-05-14T00:00:19.463Z,102054.72
2023-05-14T00:03:22.310Z,102051.13
2023-05-14T00:06:25.264Z,102047.53
2023-05-14T00:09:30.347Z,102049.28
2023-05-14T00:12:33.295Z,102047.53
2023-05-14T00:15:36.114Z,102047.53
2023-05-14T00:18:39.166Z,102046.72
2023-05-14T00:21:41.964Z,102049.38
2023-05-14T00:24:46.114Z,102041.38
2023-05-14T00:27:48.892Z,102044.97
2023-05-14T00:30:52.368Z,102044.16
2023-05-14T00:33:55.123Z,102040.66
2023-05-14T00:36:57.905Z,102044.25
2023-05-14T00:40:02.256Z,102037.13
2023-05-14T00:43:05.039Z,102033.50
2023-05-14T00:46:08.050Z,102033.50
2023-05-14T00:49:10.836Z,102029.88
2023-05-14T00:52:15.486Z,102031.63
2023-05-14T00:55:20.217Z,102036.97
2023-05-14T00:58:23.827Z,102031.63
2023-05-14T01:01:28.496Z,102026.34
2023-05-14T01:04:31.475Z,102029.00
2023-05-14T01:07:42.617Z,102029.00
2023-05-14T01:10:53.305Z,102028.19
2023-05-14T01:14:04.357Z,102030.97
2023-05-14T01:17:10.095Z,102027.41
2023-05-14T01:20:13.450Z,102033.66
2023-05-14T01:23:17.880Z,102030.16
2023-05-14T01:26:20.883Z,102026.50
2023-05-14T01:29:24.913Z,102030.91
2023-05-14T01:32:29.324Z,102028.25
2023-05-14T01:35:32.305Z,102035.34
2023-05-14T01:38:37.550Z,102028.25
2023-05-14T01:41:41.032Z,102021.19
2023-05-14T01:44:44.414Z,102016.69
2023-05-14T01:47:47.188Z,102021.19
2023-05-14T01:50:49.989Z,102014.09
2023-05-14T01:53:54.174Z,102016.75
2023-05-14T01:56:56.945Z,102012.31
2023-05-14T01:59:59.760Z,102013.31
2023-05-14T02:03:05.367Z,102010.69
2023-05-14T02:06:08.429Z,102005.34
2023-05-14T02:09:12.539Z,102000.84
2023-05-14T02:12:15.394Z,101989.31
2023-05-14T02:15:18.299Z,101994.59
2023-05-14T02:18:21.083Z,101992.84
2023-05-14T02:21:24.192Z,101999.94
2023-05-14T02:24:28.427Z,101993.78
2023-05-14T02:27:31.624Z,101992.84
2023-05-14T02:30:34.445Z,101991.09
2023-05-14T02:33:37.274Z,102001.78
2023-05-14T02:36:40.601Z,101991.09
2023-05-14T02:39:44.663Z,101991.09
2023-05-14T02:42:47.570Z,101987.63
2023-05-14T02:45:50.340Z,101988.53
2023-05-14T02:48:53.145Z,101985.00
2023-05-14T02:51:55.904Z,101991.19
2023-05-14T02:55:00.161Z,101998.28
2023-05-14T02:58:02.981Z,101994.75
2023-05-14T03:01:06.015Z,101998.28
2023-05-14T03:04:09.441Z,101994.69
2023-05-14T03:07:12.176Z,102001.84
2023-05-14T03:10:16.308Z,101987.63
2023-05-14T03:13:20.715Z,101991.19
2023-05-14T03:16:23.897Z,101995.69
2023-05-14T03:19:26.741Z,102001.88
2023-05-14T03:22:29.635Z,101999.25
2023-05-14T03:25:34.385Z,101997.56
2023-05-14T03:28:37.174Z,102000.22
2023-05-14T03:31:40.296Z,101998.50
2023-05-14T03:34:44.666Z,101997.56
2023-05-14T03:37:48.045Z,101994.88
2023-05-14T03:40:52.266Z,102000.22
2023-05-14T03:43:55.020Z,101997.53
2023-05-14T03:46:57.802Z,101998.38
2023-05-14T03:50:00.654Z,102001.91
2023-05-14T03:53:03.395Z,101998.38
2023-05-14T03:56:07.894Z,101996.59
2023-05-14T03:59:10.671Z,101997.53
2023-05-14T04:02:13.589Z,101992.19
2023-05-14T04:05:16.391Z,101987.81
2023-05-14T04:08:19.234Z,101986.06
2023-05-14T04:11:23.350Z,101983.47
2023-05-14T04:14:26.246Z,101986.13
2023-05-14T04:17:29.071Z,101983.47
2023-05-14T04:20:32.835Z,101979.91
2023-05-14T04:23:35.591Z,101977.25
2023-05-14T04:26:39.764Z,101982.56
2023-05-14T04:29:42.488Z,101979.09
2023-05-14T04:32:45.579Z,101971.03
2023-05-14T04:35:48.434Z,101964.84
2023-05-14T04:38:51.595Z,101960.41
2023-05-14T04:41:55.738Z,101969.31
2023-05-14T04:44:58.954Z,101975.53
2023-05-14T04:48:01.869Z,101968.44
2023-05-14T04:51:06.919Z,101962.22
2023-05-14T04:54:10.026Z,101963.09
2023-05-14T04:57:14.181Z,101960.41
2023-05-14T05:00:17.793Z,101958.63
2023-05-14T05:03:20.765Z,101965.69
2023-05-14T05:06:23.648Z,101970.19
2023-05-14T05:09:26.417Z,101967.53
2023-05-14T05:12:30.868Z,101956.84
2023-05-14T05:15:33.621Z,101964.84
2023-05-14T05:18:36.430Z,101958.63
2023-05-14T05:21:40.738Z,101957.75
2023-05-14T05:24:43.889Z,101956.03
2023-05-14T05:27:47.988Z,101950.63
2023-05-14T05:30:50.823Z,101945.38
2023-05-14T05:33:53.659Z,101948.84
2023-05-14T05:36:56.418Z,101940.84
2023-05-14T05:39:59.184Z,101939.91
2023-05-14T05:43:03.332Z,101939.91
2023-05-14T05:46:06.161Z,101931.91
2023-05-14T05:49:08.993Z,101939.00
2023-05-14T05:52:11.807Z,101937.19
2023-05-14T05:55:14.657Z,101943.41
2023-05-14T05:58:19.011Z,101941.66
2023-05-14T06:01:21.756Z,101945.19
2023-05-14T06:04:24.473Z,101938.06
2023-05-14T06:07:27.232Z,101940.78
2023-05-14T06:10:30.095Z,101942.56
2023-05-14T06:13:34.321Z,101946.13
2023-05-14T06:16:37.081Z,101934.56
2023-05-14T06:19:39.830Z,101943.41
2023-05-14T06:22:42.546Z,101943.41
2023-05-14T06:25:45.281Z,101940.72
2023-05-14T06:28:49.513Z,101932.72
2023-05-14T06:31:52.349Z,101932.72
2023-05-14T06:34:55.107Z,101937.16
2023-05-14T06:37:57.887Z,101945.16
2023-05-14T06:41:00.731Z,101942.50
2023-05-14T06:44:05.101Z,101936.28
2023-05-14T06:47:08.529Z,101934.47
2023-05-14T06:50:12.001Z,101934.47
2023-05-14T06:53:15.272Z,101934.47
2023-05-14T06:56:18.126Z,101922.94
2023-05-14T06:59:22.265Z,101929.16
2023-05-14T07:02:25.105Z,101931.81
2023-05-14T07:05:28.184Z,101930.88
2023-05-14T07:08:30.983Z,101923.81
2023-05-14T07:11:33.804Z,101930.00
2023-05-14T07:14:37.948Z,101923.75
2023-05-14T07:17:40.738Z,101923.75
2023-05-14T07:20:43.546Z,101923.75
2023-05-14T07:23:46.345Z,101926.38
2023-05-14T07:26:49.360Z,101922.00
2023-05-14T07:29:53.523Z,101923.69
2023-05-14T07:32:56.304Z,101908.50
2023-05-14T07:35:59.110Z,101911.19
2023-05-14T07:39:01.969Z,101915.53
2023-05-14T07:42:05.924Z,101909.31
2023-05-14T07:45:11.060Z,101916.41
2023-05-14T07:48:13.941Z,101903.91
2023-05-14T07:51:16.716Z,101906.50
2023-05-14T07:54:19.456Z,101906.50
2023-05-14T07:57:22.622Z,101910.00
2023-05-14T08:00:27.127Z,101897.53
2023-05-14T08:03:30.374Z,101891.28
2023-05-14T08:06:33.277Z,101898.34
2023-05-14T08:09:36.071Z,101899.22
2023-05-14T08:12:39.147Z,101904.50
2023-05-14T08:15:43.390Z,101892.09
2023-05-14T08:18:46.269Z,101892.94
2023-05-14T08:21:49.073Z,101900.09
2023-05-14T08:24:51.844Z,101896.50
2023-05-14T08:27:54.763Z,101896.44
2023-05-14T08:30:58.977Z,101899.97
2023-05-14T08:34:01.931Z,101894.66
2023-05-14T08:37:05.012Z,101899.00
2023-05-14T08:40:09.585Z,101882.13
2023-05-14T08:43:13.398Z,101893.59
2023-05-14T08:46:18.906Z,101892.69
2023-05-14T08:49:33.747Z,101887.34
2023-05-14T08:52:36.628Z,101881.16
2023-05-14T08:55:39.473Z,101879.28
2023-05-14T08:58:42.210Z,101873.06
2023-05-14T09:01:48.813Z,101877.50
2023-05-14T09:04:56.528Z,101871.22
2023-05-14T09:07:59.343Z,101867.72
2023-05-14T09:11:02.216Z,101865.88
2023-05-14T09:14:04.947Z,101863.22
2023-05-14T09:17:09.461Z,101868.53
2023-05-14T09:20:13.894Z,101859.63
2023-05-14T09:23:16.883Z,101854.25
2023-05-14T09:26:19.704Z,101843.56
2023-05-14T09:29:22.721Z,101833.78
2023-05-14T09:32:26.939Z,101830.19
2023-05-14T09:35:29.972Z,101825.75
2023-05-14T09:38:33.637Z,101823.09
2023-05-14T09:41:37.414Z,101823.97
2023-05-14T09:44:41.271Z,101813.34
2023-05-14T09:47:46.049Z,101816.00
2023-05-14T09:50:48.996Z,101811.63
2023-05-14T09:53:53.588Z,101801.97
2023-05-14T09:56:56.414Z,101803.84
2023-05-14T09:59:59.202Z,101807.41
2023-05-14T10:03:07.729Z,101787.19
2023-05-14T10:06:13.162Z,101781.09
2023-05-14T10:09:19.858Z,101779.34
2023-05-14T10:12:24.319Z,101773.09
2023-05-14T10:15:33.154Z,101774.75
2023-05-14T10:18:45.894Z,101778.25
2023-05-14T10:21:54.114Z,101770.22
2023-05-14T10:24:57.168Z,101761.25
2023-05-14T10:28:00.260Z,101749.69
2023-05-14T10:31:03.148Z,101751.38
2023-05-14T10:34:34.613Z,101742.41
2023-05-14T10:37:37.407Z,101741.50
2023-05-14T10:40:40.348Z,101738.84
2023-05-14T10:47:21.455Z,101728.97
2023-05-14T10:50:27.519Z,101727.16
2023-05-14T10:53:35.046Z,101723.56
2023-05-14T10:56:38.232Z,101728.91
2023-05-14T10:59:43.382Z,101710.16
2023-05-14T11:02:46.873Z,101721.72
2023-05-14T11:05:51.512Z,101710.16
2023-05-14T11:08:55.476Z,101708.38
2023-05-14T11:11:58.324Z,101703.91
2023-05-14T11:15:03.858Z,101707.47
2023-05-14T11:18:06.781Z,101684.34
2023-05-14T11:21:11.212Z,101681.69
2023-05-14T11:24:14.270Z,101683.47
2023-05-14T11:27:17.933Z,101679.94
2023-05-14T11:30:21.582Z,101683.56
2023-05-14T11:33:24.522Z,101675.53
2023-05-14T11:36:28.881Z,101681.75
2023-05-14T11:39:32.972Z,101664.88
2023-05-14T11:42:36.756Z,101648.88
2023-05-14T11:45:39.584Z,101657.75
2023-05-14T11:48:42.428Z,101649.75
2023-05-14T11:51:46.558Z,101657.69
2023-05-14T11:54:50.858Z,101649.66
2023-05-14T11:57:53.792Z,101647.00
2023-05-14T12:00:57.264Z,101652.22
2023-05-14T12:04:01.653Z,101641.41
2023-05-14T12:07:11.370Z,101636.88
2023-05-14T12:10:14.503Z,101634.09
2023-05-14T12:13:18.436Z,101635.84
2023-05-14T12:16:22.012Z,101637.66
2023-05-14T12:19:25.901Z,101630.50
2023-05-14T12:22:30.882Z,101636.78
2023-05-14T12:25:33.641Z,101625.22
2023-05-14T12:28:38.535Z,101638.56
2023-05-14T12:31:46.870Z,101635.03
2023-05-14T12:34:49.651Z,101629.75
2023-05-14T12:37:53.723Z,101619.97
2023-05-14T12:40:56.543Z,101620.88
2023-05-14T12:44:00.160Z,101615.53
2023-05-14T12:47:03.316Z,101596.88
2023-05-14T12:50:07.371Z,101602.19
2023-05-14T12:53:11.671Z,101601.28
2023-05-14T12:56:14.580Z,101601.28
2023-05-14T12:59:17.360Z,101595.06
2023-05-14T13:02:20.166Z,101590.63
2023-05-14T13:05:23.155Z,101594.13
2023-05-14T13:08:27.564Z,101593.28
2023-05-14T13:11:31.850Z,101590.63
2023-05-14T13:14:36.288Z,101588.78
2023-05-14T13:17:39.086Z,101580.75
2023-05-14T13:20:43.233Z,101580.75
2023-05-14T13:23:47.682Z,101579.78
2023-05-14T13:26:50.434Z,101586.00
2023-05-14T13:29:53.183Z,101573.53
2023-05-14T13:32:56.019Z,101570.88
2023-05-14T13:35:58.821Z,101561.25
2023-05-14T13:39:02.957Z,101558.59
2023-05-14T13:42:06.315Z,101555.16
2023-05-14T13:45:11.509Z,101553.38
2023-05-14T13:48:14.394Z,101550.78
2023-05-14T13:51:17.258Z,101545.44
2023-05-14T13:54:21.398Z,101549.91
2023-05-14T13:57:24.202Z,101539.22
2023-05-14T14:00:27.488Z,101543.63
2023-05-14T14:03:30.350Z,101540.09
2023-05-14T14:06:33.134Z,101536.56
2023-05-14T14:09:37.230Z,101534.84
2023-05-14T14:12:40.047Z,101527.75
2023-05-14T14:15:43.532Z,101531.38
2023-05-14T14:18:46.305Z,101521.59
2023-05-14T14:24:58.295Z,101517.19
2023-05-14T14:28:01.231Z,101526.13
2023-05-14T14:31:04.370Z,101517.19
2023-05-14T14:34:07.395Z,101515.47
2023-05-14T14:37:10.136Z,101511.84
2023-05-14T14:40:14.429Z,101510.94
2023-05-14T14:43:17.311Z,101500.28
2023-05-14T14:46:20.154Z,101499.34
2023-05-14T14:49:22.981Z,101494.94
2023-05-14T14:52:26.404Z,101495.84
2023-05-14T14:55:30.473Z,101495.00
2023-05-14T14:58:33.350Z,101494.13
2023-05-14T15:01:36.444Z,101488.78
2023-05-14T15:04:39.258Z,101495.03
2023-05-14T15:07:42.009Z,101481.78
2023-05-14T15:10:46.857Z,101479.13
2023-05-14T15:13:49.832Z,101480.00
2023-05-14T15:16:52.650Z,101481.72
2023-05-14T15:19:55.493Z,101471.03
2023-05-14T15:22:58.294Z,101473.69
2023-05-14T15:26:02.421Z,101476.38
2023-05-14T15:29:05.726Z,101473.69
2023-05-14T15:32:09.003Z,101466.56
2023-05-14T15:35:11.830Z,101470.19
2023-05-14T15:38:14.586Z,101465.69
2023-05-14T15:41:18.749Z,101463.97
2023-05-14T15:44:21.649Z,101469.25
2023-05-14T15:47:24.898Z,101458.66
2023-05-14T15:50:27.765Z,101452.44
2023-05-14T15:53:30.517Z,101451.56
2023-05-14T15:56:34.786Z,101448.88
2023-05-14T15:59:37.608Z,101443.56
2023-05-14T16:02:40.711Z,101440.88
2023-05-14T16:05:44.740Z,101441.75
2023-05-14T16:08:47.725Z,101440.88
2023-05-14T16:11:51.907Z,101437.38
2023-05-14T16:14:54.728Z,101440.88
2023-05-14T16:17:57.573Z,101435.56
2023-05-14T16:21:01.725Z,101423.16
2023-05-14T16:24:06.045Z,101421.41
2023-05-14T16:27:10.296Z,101419.63
2023-05-14T16:30:13.467Z,101410.75
2023-05-14T16:33:16.370Z,101410.75
2023-05-14T16:36:19.157Z,101410.75
2023-05-14T16:39:21.994Z,101412.56
2023-05-14T16:42:26.514Z,101415.25
2023-05-14T16:45:29.582Z,101414.38
2023-05-14T16:48:32.387Z,101407.25
2023-05-14T16:51:36.498Z,101409.91
2023-05-14T16:54:39.309Z,101395.69
2023-05-14T16:57:43.774Z,101398.34
2023-05-14T17:00:46.596Z,101396.59
2023-05-14T17:03:49.724Z,101402.81
2023-05-14T17:06:52.526Z,101394.91
2023-05-14T17:09:55.365Z,101398.41
2023-05-14T17:12:59.555Z,101403.72
2023-05-14T17:16:02.602Z,101399.34
2023-05-14T17:19:05.745Z,101398.47
2023-05-14T17:22:08.610Z,101397.59
2023-05-14T17:25:11.466Z,101402.94
2023-05-14T17:28:15.837Z,101399.34
2023-05-14T17:31:18.656Z,101401.16
2023-05-14T17:34:21.671Z,101399.34
2023-05-14T17:37:24.989Z,101400.22
2023-05-14T17:40:27.843Z,101401.06
2023-05-14T17:43:32.023Z,101403.69
2023-05-14T17:46:35.523Z,101392.22
2023-05-14T17:49:38.398Z,101388.69
2023-05-14T17:52:44.060Z,101394.03
2023-05-14T17:55:46.944Z,101391.44
2023-05-14T17:58:50.998Z,101390.47
2023-05-14T18:01:53.810Z,101394.09
2023-05-14T18:04:56.510Z,101394.09
2023-05-14T18:07:59.444Z,101391.44
2023-05-14T18:11:02.251Z,101395.88
2023-05-14T18:14:06.386Z,101395.88
2023-05-14T18:17:09.210Z,101398.63
2023-05-14T18:20:12.656Z,101400.28
2023-05-14T18:23:15.415Z,101396.75
2023-05-14T18:26:18.311Z,101398.47
2023-05-14T18:29:22.480Z,101401.16
2023-05-14T18:32:25.361Z,101397.56
2023-05-14T18:35:28.646Z,101401.94
2023-05-14T18:38:31.504Z,101402.81
2023-05-14T18:41:34.257Z,101398.34
2023-05-14T18:44:41.217Z,101403.69
2023-05-14T18:47:44.064Z,101410.75
2023-05-14T18:50:46.912Z,101400.06
2023-05-14T18:53:49.677Z,101410.75
2023-05-14T18:56:52.524Z,101406.28
2023-05-14T18:59:56.789Z,101412.50
2023-05-14T19:02:59.757Z,101411.53
2023-05-14T19:06:02.616Z,101411.63
2023-05-14T19:09:05.379Z,101405.41
2023-05-14T19:12:09.128Z,101417.84
2023-05-14T19:15:13.653Z,101414.38
2023-05-14T19:18:17.606Z,101416.09
2023-05-14T19:21:20.387Z,101414.38
2023-05-14T19:24:23.232Z,101408.06
2023-05-14T19:27:26.896Z,101415.16
2023-05-14T19:30:31.031Z,101409.75
2023-05-14T19:33:34.219Z,101412.34
2023-05-14T19:36:37.096Z,101413.22
2023-05-14T19:39:39.934Z,101410.63
2023-05-14T19:42:42.770Z,101411.50
2023-05-14T19:45:46.888Z,101407.09
2023-05-14T19:48:49.680Z,101403.53
2023-05-14T19:51:52.450Z,101402.69
2023-05-14T19:54:55.229Z,101407.16
2023-05-14T19:57:58.081Z,101400.06
2023-05-14T20:01:02.250Z,101398.34
2023-05-14T20:04:05.266Z,101391.22
2023-05-14T20:07:09.070Z,101382.34
2023-05-14T20:10:12.221Z,101389.41
2023-05-14T20:13:15.038Z,101384.06
2023-05-14T20:16:19.272Z,101387.63
2023-05-14T20:19:22.563Z,101388.56
2023-05-14T20:22:25.713Z,101385.03
2023-05-14T20:25:28.887Z,101378.81
2023-05-14T20:28:31.756Z,101379.69
2023-05-14T20:31:35.918Z,101380.59
2023-05-14T20:34:38.645Z,101374.41
2023-05-14T20:37:41.749Z,101369.06
2023-05-14T20:40:44.593Z,101369.94
2023-05-14T20:43:47.382Z,101362.00
2023-05-14T20:46:51.621Z,101354.88
2023-05-14T20:49:54.375Z,101355.69
2023-05-14T20:52:57.162Z,101355.69
2023-05-14T20:56:01.238Z,101346.72
2023-05-14T20:59:04.011Z,101343.25
2023-05-14T21:02:08.940Z,101335.22
2023-05-14T21:05:11.931Z,101344.06
2023-05-14T21:08:14.687Z,101331.69
2023-05-14T21:11:17.460Z,101340.59
2023-05-14T21:17:52.514Z,101330.88
2023-05-14T21:20:55.282Z,101329.94
2023-05-14T21:23:58.057Z,101319.25
2023-05-14T21:27:00.923Z,101310.34
2023-05-14T21:30:03.753Z,101313.00
2023-05-14T21:33:08.376Z,101310.34
2023-05-14T21:36:11.275Z,101309.38
2023-05-14T21:39:14.094Z,101306.72
2023-05-14T21:42:17.708Z,101302.34
2023-05-14T21:45:22.906Z,101297.00
2023-05-14T21:48:27.776Z,101305.00
2023-05-14T21:51:32.054Z,101298.78
2023-05-14T21:54:34.871Z,101297.91
2023-05-14T21:57:37.678Z,101289.91
2023-05-14T22:00:40.794Z,101289.91
2023-05-14T22:03:44.992Z,101288.19
2023-05-14T22:06:47.844Z,101289.91
2023-05-14T22:09:50.701Z,101291.66
2023-05-14T22:12:53.571Z,101291.66
2023-05-14T22:16:09.311Z,101286.31
2023-05-14T22:19:16.800Z,101280.03
2023-05-14T22:22:19.662Z,101275.66
2023-05-14T22:25:22.785Z,101267.66
2023-05-14T22:28:25.895Z,101275.56
2023-05-14T22:31:28.712Z,101271.19
2023-05-14T22:34:32.881Z,101265.88
2023-05-14T22:37:35.718Z,101270.31
2023-05-14T22:40:38.532Z,101256.97
2023-05-14T22:43:41.384Z,101258.78
2023-05-14T22:46:44.300Z,101263.25
2023-05-14T22:49:48.652Z,101254.31
2023-05-14T22:52:51.383Z,101256.13
2023-05-14T22:56:45.885Z,101259.66
2023-05-14T22:59:48.866Z,101248.13
2023-05-14T23:02:51.680Z,101254.31
2023-05-14T23:05:56.030Z,101248.97
2023-05-14T23:08:58.955Z,101245.44
2023-05-14T23:12:01.954Z,101242.78
2023-05-14T23:15:05.187Z,101227.66
2023-05-14T23:18:08.825Z,101226.78
2023-05-14T23:21:13.574Z,101224.19
2023-05-14T23:24:16.329Z,101218.84
2023-05-14T23:27:19.162Z,101212.66
2023-05-14T23:30:21.919Z,101211.69
2023-05-14T23:33:24.655Z,101209.03
2023-05-14T23:36:31.388Z,101208.09
2023-05-14T23:39:34.221Z,101198.34
2023-05-14T23:42:36.973Z,101200.09
2023-05-14T23:45:39.780Z,101200.09
2023-05-14T23:48:42.757Z,101193.03
2023-05-14T23:51:46.882Z,101197.50
2023-05-14T23:54:49.625Z,101185.09
2023-05-14T23:57:52.481Z,101193.09
